createdAt,value
2023-05-17T00:02:13.975Z,65.20
2023-05-17T00:05:55.983Z,65.30
2023-05-17T00:09:37.796Z,65.50
2023-05-17T00:13:19.924Z,65.90
2023-05-17T00:17:01.795Z,66.20
2023-05-17T00:20:43.649Z,66.50
2023-05-17T00:24:26.574Z,66.70
2023-05-17T00:28:08.329Z,67.00
2023-05-17T00:31:50.112Z,67.20
2023-05-17T00:35:31.857Z,67.30
2023-05-17T00:39:13.644Z,67.30
2023-05-17T00:42:55.696Z,67.40
2023-05-17T00:46:37.523Z,67.60
2023-05-17T00:50:19.382Z,67.70
2023-05-17T00:54:01.417Z,67.80
2023-05-17T00:57:43.228Z,68.00
2023-05-17T01:01:26.504Z,68.10
2023-05-17T01:05:08.281Z,68.40
2023-05-17T01:08:50.113Z,69.00
2023-05-17T01:13:04.309Z,68.20
2023-05-17T01:16:57.679Z,70.90
2023-05-17T01:20:43.934Z,70.40
2023-05-17T01:24:46.529Z,69.80
2023-05-17T01:28:31.838Z,71.30
2023-05-17T01:32:15.298Z,70.00
2023-05-17T01:35:57.094Z,69.70
2023-05-17T01:39:39.020Z,69.80
2023-05-17T01:43:43.119Z,70.10
2023-05-17T01:47:40.652Z,71.80
2023-05-17T01:51:27.415Z,70.80
2023-05-17T01:55:20.930Z,71.20
2023-05-17T01:59:06.627Z,70.40
2023-05-17T02:02:48.476Z,71.00
2023-05-17T02:06:30.914Z,70.20
2023-05-17T02:10:13.061Z,70.70
2023-05-17T02:13:54.810Z,71.00
2023-05-17T02:17:36.665Z,70.90
2023-05-17T02:21:18.590Z,71.00
2023-05-17T02:25:00.487Z,71.20
2023-05-17T02:28:42.209Z,71.40
2023-05-17T02:32:24.075Z,71.50
2023-05-17T02:36:06.024Z,71.50
2023-05-17T02:39:47.767Z,71.70
2023-05-17T02:43:29.644Z,71.70
2023-05-17T02:47:11.494Z,71.80
2023-05-17T02:50:53.302Z,72.00
2023-05-17T02:54:35.107Z,72.20
2023-05-17T02:58:16.906Z,72.40
2023-05-17T03:01:58.715Z,72.50
2023-05-17T03:05:40.490Z,72.70
2023-05-17T03:09:22.713Z,72.70
2023-05-17T03:13:04.432Z,72.80
2023-05-17T03:16:46.318Z,72.80
2023-05-17T03:20:28.080Z,72.80
2023-05-17T03:24:09.809Z,72.90
2023-05-17T03:27:51.571Z,72.80
2023-05-17T03:31:33.491Z,72.90
2023-05-17T03:35:15.267Z,73.00
2023-05-17T03:38:57.143Z,73.10
2023-05-17T03:42:38.909Z,73.20
2023-05-17T03:46:20.672Z,73.40
2023-05-17T03:50:02.456Z,73.50
2023-05-17T03:53:44.293Z,73.70
2023-05-17T03:57:26.201Z,73.80
2023-05-17T04:01:07.989Z,73.80
2023-05-17T04:04:50.935Z,74.00
2023-05-17T04:08:36.288Z,74.20
2023-05-17T04:12:18.047Z,74.30
2023-05-17T04:15:59.856Z,74.20
2023-05-17T04:19:41.676Z,74.20
2023-05-17T04:23:23.523Z,73.90
2023-05-17T04:27:06.730Z,74.10
2023-05-17T04:30:48.527Z,74.20
2023-05-17T04:34:31.951Z,74.30
2023-05-17T04:38:14.296Z,74.40
2023-05-17T04:41:56.149Z,75.00
2023-05-17T04:45:38.570Z,74.20
2023-05-17T04:49:20.338Z,74.50
2023-05-17T04:53:02.130Z,74.60
2023-05-17T04:56:43.858Z,74.60
2023-05-17T05:00:25.715Z,74.70
2023-05-17T05:04:07.698Z,75.00
2023-05-17T05:07:49.667Z,75.10
2023-05-17T05:11:32.078Z,75.00
2023-05-17T05:15:14.000Z,75.20
2023-05-17T05:18:55.877Z,75.30
2023-05-17T05:22:37.716Z,75.30
2023-05-17T05:26:19.581Z,75.60
2023-05-17T05:30:02.196Z,76.10
2023-05-17T05:33:44.233Z,76.20
2023-05-17T05:37:26.184Z,76.00
2023-05-17T05:41:08.051Z,75.80
2023-05-17T05:44:49.964Z,75.50
2023-05-17T05:48:31.881Z,75.10
2023-05-17T05:52:13.674Z,74.80
2023-05-17T05:55:55.465Z,74.30
2023-05-17T05:59:49.636Z,74.00
2023-05-17T06:03:31.379Z,73.30
2023-05-17T06:07:14.104Z,73.40
2023-05-17T06:10:55.992Z,72.70
2023-05-17T06:14:38.581Z,72.40
2023-05-17T06:18:20.499Z,72.00
2023-05-17T06:22:02.389Z,71.80
2023-05-17T06:25:44.277Z,71.70
2023-05-17T06:29:26.072Z,71.30
2023-05-17T06:33:08.691Z,70.90
2023-05-17T06:36:50.579Z,70.80
2023-05-17T06:40:32.600Z,71.10
2023-05-17T06:44:14.808Z,71.90
2023-05-17T06:47:56.602Z,70.60
2023-05-17T06:51:38.427Z,70.70
2023-05-17T06:55:20.360Z,70.60
2023-05-17T06:59:02.440Z,70.50
2023-05-17T07:02:44.409Z,70.00
2023-05-17T07:06:26.304Z,69.80
2023-05-17T07:10:08.332Z,69.30
2023-05-17T07:13:52.219Z,68.80
2023-05-17T07:17:35.497Z,68.20
2023-05-17T07:21:17.317Z,67.90
2023-05-17T07:24:59.094Z,68.30
2023-05-17T07:28:40.986Z,67.50
2023-05-17T07:32:22.791Z,67.50
2023-05-17T07:36:05.686Z,67.60
2023-05-17T07:39:47.390Z,67.40
2023-05-17T07:43:29.692Z,67.00
2023-05-17T07:47:11.451Z,67.20
2023-05-17T07:50:54.675Z,66.80
2023-05-17T07:54:36.433Z,66.70
2023-05-17T07:58:19.328Z,66.70
2023-05-17T08:02:01.221Z,66.40
2023-05-17T08:05:43.086Z,65.90
2023-05-17T08:09:24.910Z,65.70
2023-05-17T08:13:06.986Z,65.30
2023-05-17T08:16:48.774Z,65.40
2023-05-17T08:20:30.569Z,65.30
2023-05-17T08:24:12.707Z,65.30
2023-05-17T08:27:54.464Z,65.40
2023-05-17T08:31:36.252Z,64.90
2023-05-17T08:35:18.132Z,65.20
2023-05-17T08:38:59.933Z,65.00
2023-05-17T08:42:42.554Z,64.90
2023-05-17T08:46:26.663Z,65.00
2023-05-17T08:50:11.174Z,64.80
2023-05-17T08:53:53.032Z,64.40
2023-05-17T08:57:38.749Z,64.30
2023-05-17T09:01:23.603Z,64.30
2023-05-17T09:05:08.742Z,65.00
2023-05-17T09:08:55.213Z,64.40
2023-05-17T09:12:37.289Z,64.40
2023-05-17T09:16:21.297Z,64.40
2023-05-17T09:20:03.404Z,64.50
2023-05-17T09:24:01.672Z,65.00
2023-05-17T09:27:46.989Z,64.00
2023-05-17T09:31:28.804Z,64.30
2023-05-17T09:35:11.168Z,64.30
2023-05-17T09:39:01.688Z,64.60
2023-05-17T09:42:47.785Z,64.50
2023-05-17T09:46:34.960Z,64.50
2023-05-17T09:50:20.513Z,64.40
2023-05-17T09:54:02.721Z,64.60
2023-05-17T09:57:44.715Z,64.60
2023-05-17T10:01:30.867Z,64.10
2023-05-17T10:05:13.331Z,63.90
2023-05-17T10:08:57.918Z,64.40
2023-05-17T10:12:41.539Z,63.80
2023-05-17T10:16:23.900Z,64.00
2023-05-17T10:20:07.068Z,64.10
2023-05-17T10:23:49.933Z,63.70
2023-05-17T10:27:31.621Z,63.70
2023-05-17T10:31:13.385Z,63.70
2023-05-17T10:35:09.217Z,63.90
2023-05-17T10:38:54.127Z,64.40
2023-05-17T10:42:36.074Z,63.20
2023-05-17T10:46:22.334Z,63.30
2023-05-17T10:50:11.944Z,63.20
2023-05-17T10:54:02.814Z,62.60
2023-05-17T10:57:50.950Z,61.70
2023-05-17T11:01:55.021Z,62.70
2023-05-17T11:05:37.075Z,61.40
2023-05-17T11:09:23.806Z,62.50
2023-05-17T11:13:25.193Z,61.90
2023-05-17T11:17:17.913Z,61.70
2023-05-17T11:21:08.914Z,61.80
2023-05-17T11:24:55.774Z,61.80
2023-05-17T11:28:39.354Z,62.20
2023-05-17T11:32:28.807Z,61.70
2023-05-17T11:36:19.291Z,61.10
2023-05-17T11:40:06.311Z,60.90
2023-05-17T11:43:49.464Z,61.60
2023-05-17T11:47:31.746Z,62.20
2023-05-17T11:51:17.894Z,61.60
2023-05-17T11:55:01.448Z,61.50
2023-05-17T11:58:45.338Z,61.00
2023-05-17T12:02:31.981Z,61.10
2023-05-17T12:06:17.262Z,60.50
2023-05-17T12:09:59.064Z,60.40
2023-05-17T12:13:44.096Z,60.70
2023-05-17T12:17:37.764Z,60.90
2023-05-17T12:21:21.369Z,59.80
2023-05-17T12:25:04.033Z,60.70
2023-05-17T12:28:57.543Z,60.40
2023-05-17T12:32:39.578Z,59.90
2023-05-17T12:36:22.417Z,60.60
2023-05-17T12:40:05.229Z,60.30
2023-05-17T12:43:47.047Z,60.20
2023-05-17T12:47:32.340Z,60.00
2023-05-17T12:51:22.811Z,59.60
2023-05-17T12:55:04.915Z,58.90
2023-05-17T12:59:25.363Z,59.60
2023-05-17T13:03:10.876Z,57.80
2023-05-17T13:06:54.802Z,58.70
2023-05-17T13:10:36.609Z,58.70
2023-05-17T13:14:37.372Z,58.50
2023-05-17T13:18:21.285Z,57.40
2023-05-17T13:22:04.863Z,58.40
2023-05-17T13:25:46.650Z,58.20
2023-05-17T13:29:38.722Z,58.30
2023-05-17T13:33:21.703Z,58.10
2023-05-17T13:37:04.174Z,58.30
2023-05-17T13:40:46.596Z,57.80
2023-05-17T13:44:28.407Z,57.70
2023-05-17T13:48:10.263Z,57.90
2023-05-17T13:51:52.204Z,57.90
2023-05-17T13:55:34.441Z,58.00
2023-05-17T13:59:16.243Z,58.10
2023-05-17T14:02:58.055Z,58.00
2023-05-17T14:06:39.894Z,57.70
2023-05-17T14:10:21.646Z,57.40
2023-05-17T14:14:04.280Z,57.40
2023-05-17T14:17:46.434Z,57.30
2023-05-17T14:21:28.377Z,57.20
2023-05-17T14:25:11.695Z,57.20
2023-05-17T14:28:53.660Z,57.10
2023-05-17T14:32:36.354Z,56.90
2023-05-17T14:36:18.093Z,56.80
2023-05-17T14:40:06.525Z,56.60
2023-05-17T14:43:48.671Z,57.10
2023-05-17T14:47:30.534Z,57.20
2023-05-17T14:51:12.390Z,57.20
2023-05-17T14:54:54.307Z,57.10
2023-05-17T14:58:36.340Z,57.10
2023-05-17T15:02:18.388Z,57.10
2023-05-17T15:06:00.632Z,57.00
2023-05-17T15:09:44.192Z,57.10
2023-05-17T15:13:26.508Z,57.20
2023-05-17T15:17:08.616Z,57.10
2023-05-17T15:20:50.349Z,57.10
2023-05-17T15:24:32.960Z,57.20
2023-05-17T15:28:14.768Z,56.90
2023-05-17T15:31:56.710Z,56.50
2023-05-17T15:35:41.900Z,56.10
2023-05-17T15:39:23.831Z,55.60
2023-05-17T15:43:05.572Z,56.10
2023-05-17T15:46:47.370Z,55.70
2023-05-17T15:50:29.168Z,55.80
2023-05-17T15:54:11.118Z,55.70
2023-05-17T15:57:52.866Z,55.70
2023-05-17T16:01:34.766Z,55.70
2023-05-17T16:05:16.907Z,55.70
2023-05-17T16:08:58.649Z,55.70
2023-05-17T16:12:40.445Z,55.30
2023-05-17T16:16:22.242Z,55.90
2023-05-17T16:20:04.501Z,55.20
2023-05-17T16:23:46.590Z,55.30
2023-05-17T16:27:28.336Z,55.30
2023-05-17T16:31:10.270Z,55.30
2023-05-17T16:34:52.045Z,55.50
2023-05-17T16:38:33.853Z,55.60
2023-05-17T16:42:15.684Z,55.60
2023-05-17T16:45:57.510Z,55.80
2023-05-17T16:49:41.005Z,55.80
2023-05-17T16:53:22.784Z,55.80
2023-05-17T16:57:07.229Z,55.70
2023-05-17T17:00:49.966Z,56.20
2023-05-17T17:04:32.061Z,55.70
2023-05-17T17:08:13.826Z,55.80
2023-05-17T17:11:55.720Z,55.90
2023-05-17T17:15:37.438Z,56.00
2023-05-17T17:19:19.280Z,55.60
2023-05-17T17:23:01.244Z,55.40
2023-05-17T17:26:43.064Z,55.10
2023-05-17T17:30:24.832Z,55.00
2023-05-17T17:34:06.618Z,55.00
2023-05-17T17:37:48.529Z,54.90
2023-05-17T17:41:30.339Z,55.60
2023-05-17T17:45:12.154Z,55.00
2023-05-17T17:48:55.952Z,55.10
2023-05-17T17:52:38.640Z,55.30
2023-05-17T17:56:21.048Z,55.40
2023-05-17T18:00:04.194Z,55.80
2023-05-17T18:03:45.998Z,56.10
2023-05-17T18:07:27.784Z,56.50
2023-05-17T18:11:09.566Z,56.60
2023-05-17T18:14:51.310Z,56.90
2023-05-17T18:18:33.264Z,57.00
2023-05-17T18:22:18.875Z,57.20
2023-05-17T18:26:01.321Z,57.40
2023-05-17T18:29:43.231Z,57.50
2023-05-17T18:33:27.198Z,57.60
2023-05-17T18:37:09.099Z,57.70
2023-05-17T18:40:51.196Z,57.90
2023-05-17T18:44:34.795Z,58.00
2023-05-17T18:48:16.623Z,58.20
2023-05-17T18:51:58.498Z,58.30
2023-05-17T18:55:41.232Z,58.40
2023-05-17T18:59:23.198Z,58.60
2023-05-17T19:03:05.131Z,58.70
2023-05-17T19:06:47.244Z,58.70
2023-05-17T19:10:29.305Z,58.90
2023-05-17T19:14:11.489Z,59.00
2023-05-17T19:17:53.332Z,59.10
2023-05-17T19:21:35.398Z,59.30
2023-05-17T19:25:17.975Z,59.50
2023-05-17T19:29:01.440Z,59.50
2023-05-17T19:32:43.224Z,59.80
2023-05-17T19:36:25.706Z,60.00
2023-05-17T19:40:08.122Z,60.20
2023-05-17T19:43:49.990Z,60.30
2023-05-17T19:47:32.183Z,60.40
2023-05-17T19:51:13.988Z,60.50
2023-05-17T19:54:55.810Z,60.50
2023-05-17T19:58:37.620Z,60.70
2023-05-17T20:02:19.866Z,60.70
2023-05-17T20:06:01.683Z,60.90
2023-05-17T20:09:43.646Z,61.00
2023-05-17T20:13:28.574Z,61.20
2023-05-17T20:17:10.581Z,61.30
2023-05-17T20:20:54.137Z,61.30
2023-05-17T20:24:36.183Z,61.50
2023-05-17T20:28:18.221Z,61.70
2023-05-17T20:32:00.192Z,61.80
2023-05-17T20:35:42.021Z,62.10
2023-05-17T20:39:27.851Z,62.40
2023-05-17T20:43:09.747Z,62.70
2023-05-17T20:46:53.156Z,62.80
2023-05-17T20:50:34.903Z,63.20
2023-05-17T20:54:16.816Z,63.20
2023-05-17T20:57:58.546Z,63.30
2023-05-17T21:01:41.404Z,63.40
2023-05-17T21:05:23.326Z,63.50
2023-05-17T21:09:05.350Z,63.60
2023-05-17T21:12:47.118Z,63.60
2023-05-17T21:16:28.990Z,63.80
2023-05-17T21:20:11.490Z,63.90
2023-05-17T21:23:53.393Z,64.30
2023-05-17T21:27:35.354Z,64.50
2023-05-17T21:31:17.214Z,64.80
2023-05-17T21:34:59.651Z,65.00
2023-05-17T21:38:41.581Z,65.20
2023-05-17T21:42:23.369Z,65.30
2023-05-17T21:46:05.310Z,65.50
2023-05-17T21:49:47.105Z,65.50
2023-05-17T21:53:28.832Z,65.70
2023-05-17T21:57:10.769Z,66.00
2023-05-17T22:00:53.282Z,66.30
2023-05-17T22:04:35.093Z,66.70
2023-05-17T22:08:16.823Z,67.00
2023-05-17T22:11:59.592Z,67.30
2023-05-17T22:15:41.530Z,67.60
2023-05-17T22:19:23.638Z,68.40
2023-05-17T22:23:05.549Z,67.90
2023-05-17T22:26:47.297Z,68.20
2023-05-17T22:30:29.370Z,68.40
2023-05-17T22:34:11.400Z,68.80
2023-05-17T22:37:53.488Z,69.00
2023-05-17T22:41:36.268Z,69.10
2023-05-17T22:45:18.246Z,69.30
2023-05-17T22:49:00.045Z,69.30
2023-05-17T22:52:42.680Z,69.60
2023-05-17T22:56:24.615Z,69.70
2023-05-17T23:00:09.193Z,69.80
2023-05-17T23:03:51.236Z,69.90
2023-05-17T23:07:36.961Z,70.00
2023-05-17T23:11:20.015Z,70.10
2023-05-17T23:15:02.335Z,70.30
2023-05-17T23:18:44.405Z,70.40
2023-05-17T23:22:31.183Z,70.40
2023-05-17T23:26:17.490Z,70.60
2023-05-17T23:30:01.085Z,70.80
2023-05-17T23:33:42.970Z,70.80
2023-05-17T23:37:25.062Z,71.00
2023-05-17T23:41:07.427Z,71.10
2023-05-17T23:44:49.355Z,71.00
2023-05-17T23:48:31.091Z,71.00
2023-05-17T23:52:13.047Z,71.30
2023-05-17T23:55:54.784Z,71.30
2023-05-17T23:59:36.698Z,71.40
